Startpagina
METAR-TAF:

METAR-TAF

Vliegvelden :

Reims, Frankrijk

breedte: 49-12-31N, lengte: 004-09-24E, hoogte: 95 m

Actueel weer

Dit bericht is 26 minuten geleden gemaakt, om 04:30 UTC
Wind 1 kt uit variabele richting
Temperatuur -5°C
Vochtigheid 86%
Druk 1025 hPa
Zicht: 5000 m
nevel

METAR: LFQA 070430Z AUTO VRB01KT 5000 BR NSC M05/M07 Q1025

Tijdstip: 05:56 (04:56 UTC)


TAF: ontbreekt

Waarnemingen en weersverwachtingen van meer dan 4000 vliegvelden (METAR en TAF).

De beschikbare stations zijn de gele en rode punten op de kaart.

Ga met uw muis naar het station om de naam te zien.

Klik dan om waarnemingen en weersverwachtingen te zien.

kaart wijzigen: klik op de groene knoppen met een zwart kruis om in te zoomen, op de groene knop met een streepje om uit te zoomen of op de groene pijlen voor aangrenzende kaarten.


METAR-TAF: